Details From KCKB - Harrison Marion Rgnl
To KCRW - Yeager
Flight Number -
Tags Generated
Created
Modified
Stats Distance 84 nm / 156 km
Max Altitude 0 ft / 0 m
Waypoints 2
Social Downloads 1
Likes 0
Share VATSIM

Download

Looking for another format? Having issues loading an existing format? Contact us
Advertisement - Login to hide

Notes

Generated

Route

KCKB KCRW

ID Type Via Altitude Latitude Longitude Leg Dist Tot Dist Heading (true) Name
O KCKB APT - 0 ft / 0 m 39.28779˚ -80.23288˚ - 0 nm - -
O KCRW APT - 0 ft / 0 m 38.37517˚ -81.59776˚ 84 nm 84 nm 230° / 229° -

Altitude Profile

Advertisement - Login to hide

KCKB

Details ICAO KCKB (CKB)
Name HARRISON MARION RGNL
Region United States
Timezone America/New_York (UTC-5.0)
Stats Elevation 1,217 ft / 371 m (AMSL)
Location 39.296642° -80.228080°
Runways 1
Magnetic Variation 8.908° W

METAR

KCKB 120153Z 00000KT 10SM SCT120 01/M04 A2975 RMK AO2 SLP077 T00111044

Decode

TAF

KCKB 112322Z 1200/1224 15003KT P6SM OVC140 FM120500 19007KT P6SM BKN060 FM120800 23009KT P6SM OVC060 FM121200 25011G17KT 6SM -SHSN OVC030 FM121400 27014G24KT 5SM -SHSN OVC015 FM122000 28013G25KT P6SM -SHSN BKN020

Decode

Departure Runways

ID Width Length Bearing (true) Bearing (mag) Surface Threshold Offset Overrun Length
03 151 ft / 46 m 7,008 ft / 2,136 m 22.75° 31.66° Asphalt 0 ft / 0 m 0 ft / 0 m
21 151 ft / 46 m 7,008 ft / 2,136 m 202.75° 211.66° Asphalt 0 ft / 0 m 0 ft / 0 m

KCRW

Details ICAO KCRW (CRW)
Name Charleston Yeager
Region United States
Timezone America/New_York (UTC-5.0)
Stats Elevation 981 ft / 299 m (AMSL)
Location 38.372770° -81.593115°
Runways 2
Magnetic Variation 7.806° W

METAR

KCRW 120154Z 00000KT 10SM FEW090 BKN140 OVC200 04/M03 A2975 RMK AO2 SLP078 T00441033

Decode

TAF

KCRW 112322Z 1200/1224 16003KT P6SM SCT150 FM120400 20007KT P6SM BKN100 FM120800 24010KT P6SM OVC040 FM121100 25011G17KT 6SM -SHSN OVC030 FM121400 27013G24KT 6SM -SHSN OVC015 FM121700 29014G28KT 6SM -SHSN BKN025

Decode

Destination Runways

ID Width Length Bearing (true) Bearing (mag) Surface Threshold Offset Overrun Length
05 150 ft / 46 m 6,300 ft / 1,920 m 47.01° 54.82° Asphalt 0 ft / 0 m 200 ft / 61 m
15 150 ft / 46 m 4,753 ft / 1,449 m 141.48° 149.29° Asphalt 0 ft / 0 m 0 ft / 0 m
23 150 ft / 46 m 6,300 ft / 1,920 m 227.02° 234.83° Asphalt 0 ft / 0 m 200 ft / 61 m
33 150 ft / 46 m 4,753 ft / 1,449 m 321.49° 329.30° Asphalt 0 ft / 0 m 0 ft / 0 m

Approach Navaids

Runway Type Ident Frequency Range Bearing (true) Bearing (mag) Slope Elevation
05 Localiser IHCV 110.30 MHz 18 nm / 33 km 43.57° 51.38° - 981 ft / 299 m (AMSL)
05 Glidescope IHCV 110.30 MHz 10 nm / 19 km 47.02° 54.82° 3.00° 947 ft / 289 m (AMSL)
05 DME IHCV 110.30 MHz 18 nm / 33 km - - - 947 ft / 289 m (AMSL)
23 Localiser ICRW 110.30 MHz 18 nm / 33 km 228.98° 236.78° - 945 ft / 288 m (AMSL)
23 Glidescope ICRW 110.30 MHz 10 nm / 19 km 227.01° 234.82° 3.00° 867 ft / 264 m (AMSL)
23 DME ICRW 110.30 MHz 18 nm / 33 km - - - 981 ft / 299 m (AMSL)